Forside
METAR-TAF:

METAR-TAF

Lufthavne :

Teheran, Iran

Breddekreds: 35-41N, længdekreds: 051-21E, højde: 1204 m

Aktuelle vejr

Denne rapport blev lavet for 32 minutter siden, kl. 12:30 UTC
Vind 4 kt fra vestsydvest
Temperatur 35°C
Fugtighed 13%
Tryk 1009 hPa
Sigt 10 km eller mere
Nogle få skyer i en højde af 4000 ft

METAR: OIII 221230Z 24004KT 9999 FEW040 35/02 Q1008 A2979

Tid: 17:32 (13:02 UTC)

Vejrudsigter

Denne rapport blev lavet for 2 timer og 17 minutter siden, kl. 10:45 UTC
Foreløbig gælder fra 22 på 12 UTC til 23 på 18 UTC
Vind 8 kt fra sydøst
Sigt 10 km eller mere
ingen skyer under 1500m og ingen cumulonimbus

TAF: OIII 221045Z 2212/2318 14004MPS CAVOK

Vejrobservationer og prognoser fra mere end 4000 lufthavne (METAR og TAF).

De gule og røde prikker repræsenterer de meteorologiske stationer.

Flyt musen over at se navnet på stationen.

Så klik over at se vejr observationer og prognoser.

At skifte det kort: Klik på de grønne knapper med et sort kors for at zoome ind; på den grønne knap med en bindestreg for at zoome ud; eller på de grønne pile for tilstødende kort.


METAR-TAF: